Time;durP1;ratioP1;P1;durP2;ratioP2;P2;SDS_P1;SDS_P2;PMS_P1;PMS_P2;Temp;Humidity;BMP_temperature;BMP_pressure;BME280_temperature;BME280_humidity;BME280_pressure;Samples;Min_cycle;Max_cycle;Signal;HPM_P1;HPM_P2
2022/05/02 00:02:19;;;;;;;22.35;16.13;;;;;;;7.69;100.00;96728.03;4939481;28;20070;-67
2022/05/02 00:04:45;;;;;;;23.17;15.93;;;;;;;7.61;100.00;96722.38;4941108;28;20747;-69
2022/05/02 00:07:11;;;;;;;25.27;16.80;;;;;;;7.61;100.00;96713.41;4940173;28;20070;-68
2022/05/02 00:09:36;;;;;;;25.67;16.52;;;;;;;7.57;100.00;96713.31;4948665;28;20052;-72
2022/05/02 00:12:02;;;;;;;30.63;17.77;;;;;;;7.60;100.00;96723.53;4966327;29;20071;-67
2022/05/02 00:14:27;;;;;;;24.00;16.30;;;;;;;7.52;100.00;96713.53;4961195;28;20057;-66
2022/05/02 00:16:53;;;;;;;24.02;16.08;;;;;;;7.48;100.00;96707.22;4953341;28;20027;-67
2022/05/02 00:19:18;;;;;;;25.77;18.13;;;;;;;7.43;100.00;96710.16;4953472;28;20816;-66
2022/05/02 00:21:43;;;;;;;27.52;16.55;;;;;;;7.43;100.00;96704.72;4952313;28;20538;-65
2022/05/02 00:24:09;;;;;;;27.10;17.52;;;;;;;7.40;100.00;96708.13;4952133;29;20086;-65
2022/05/02 00:26:36;;;;;;;23.85;16.77;;;;;;;7.39;100.00;96701.13;4955994;29;20074;-65
2022/05/02 00:29:02;;;;;;;26.52;17.70;;;;;;;7.39;100.00;96701.13;4957556;28;20073;-66
2022/05/02 00:31:27;;;;;;;26.17;17.45;;;;;;;7.41;100.00;96694.16;4957026;28;20027;-66
2022/05/02 00:33:53;;;;;;;26.52;16.67;;;;;;;7.44;100.00;96692.69;4961611;28;20106;-66
2022/05/02 00:36:18;;;;;;;26.50;17.63;;;;;;;7.44;100.00;96684.53;4973160;28;20039;-65
2022/05/02 00:38:44;;;;;;;23.92;16.20;;;;;;;7.38;100.00;96685.88;4984420;28;20026;-69
2022/05/02 00:41:10;;;;;;;25.55;15.25;;;;;;;7.31;100.00;96686.50;4984224;28;20499;-69
2022/05/02 00:43:36;;;;;;;25.45;15.10;;;;;;;7.22;100.00;96697.53;4971958;28;20042;-66
2022/05/02 00:46:01;;;;;;;20.20;13.13;;;;;;;7.21;100.00;96698.66;4972455;28;20046;-70
2022/05/02 00:48:28;;;;;;;20.40;13.85;;;;;;;7.03;100.00;96700.84;4979426;28;20027;-67
2022/05/02 00:50:54;;;;;;;19.42;13.18;;;;;;;6.99;100.00;96710.06;4973805;28;20039;-66
2022/05/02 00:53:22;;;;;;;20.95;12.98;;;;;;;6.93;100.00;96701.31;4961378;28;20037;-67
2022/05/02 00:55:48;;;;;;;21.50;13.70;;;;;;;6.91;100.00;96700.88;4951468;29;20682;-67
2022/05/02 00:58:16;;;;;;;19.77;13.40;;;;;;;6.92;100.00;96690.78;4953439;28;20027;-64
2022/05/02 01:00:41;;;;;;;20.33;13.18;;;;;;;7.05;100.00;96692.34;4952922;28;20110;-66
2022/05/02 01:03:10;;;;;;;19.02;13.18;;;;;;;7.05;100.00;96695.06;4953064;29;20093;-66
2022/05/02 01:07:08;;;;;;;22.20;14.63;;;;;;;7.07;100.00;96690.06;4952660;28;20041;-64
2022/05/02 01:08:27;;;;;;;22.98;13.50;;;;;;;7.08;100.00;96675.31;4953937;29;20035;-66
2022/05/02 01:10:55;;;;;;;18.77;12.63;;;;;;;7.04;100.00;96683.38;4954090;28;20063;-66
2022/05/02 01:13:37;;;;;;;19.83;13.15;;;;;;;6.96;100.00;96680.78;4953644;28;20031;-65
2022/05/02 01:16:07;;;;;;;17.85;12.32;;;;;;;6.92;100.00;96682.63;4933151;29;20046;-65
2022/05/02 01:18:32;;;;;;;24.48;13.38;;;;;;;6.73;100.00;96677.75;4933608;29;20118;-65
2022/05/02 01:20:58;;;;;;;18.08;13.00;;;;;;;6.73;100.00;96685.91;4933772;29;20036;-67
2022/05/02 01:23:24;;;;;;;18.95;13.73;;;;;;;6.73;100.00;96670.38;4933712;29;20028;-65
2022/05/02 01:25:49;;;;;;;20.73;13.50;;;;;;;6.77;100.00;96681.38;4932997;29;20106;-65
2022/05/02 01:28:14;;;;;;;22.67;13.25;;;;;;;6.76;100.00;96672.41;4955112;28;20094;-66
2022/05/02 01:30:40;;;;;;;21.77;13.70;;;;;;;6.73;100.00;96667.66;4971865;28;20412;-66
2022/05/02 01:33:05;;;;;;;20.98;14.07;;;;;;;6.59;100.00;96665.31;4972318;28;20105;-65
2022/05/02 01:35:31;;;;;;;23.83;13.73;;;;;;;6.54;100.00;96665.53;4971231;28;20105;-68
2022/05/02 01:37:56;;;;;;;24.95;14.10;;;;;;;6.41;100.00;96667.47;4984502;28;20088;-65
2022/05/02 01:40:22;;;;;;;18.65;12.90;;;;;;;6.44;100.00;96663.25;4960357;28;20050;-65
2022/05/02 01:42:47;;;;;;;18.73;13.32;;;;;;;6.19;100.00;96667.88;4967737;28;20047;-69
2022/05/02 01:45:12;;;;;;;19.00;13.30;;;;;;;5.88;100.00;96672.69;4952407;28;20110;-67
2022/05/02 01:47:38;;;;;;;23.08;15.13;;;;;;;5.83;100.00;96664.72;4951658;28;20038;-66
2022/05/02 01:50:03;;;;;;;20.40;13.90;;;;;;;5.89;100.00;96662.63;4952570;28;20057;-70
2022/05/02 01:52:29;;;;;;;20.55;13.85;;;;;;;5.94;100.00;96656.94;4952315;28;20043;-70
2022/05/02 01:54:54;;;;;;;19.63;13.38;;;;;;;5.94;100.00;96668.63;4952250;28;20031;-67
2022/05/02 01:57:20;;;;;;;20.30;14.13;;;;;;;5.89;100.00;96663.41;4951543;28;20043;-67
2022/05/02 01:59:45;;;;;;;20.15;14.45;;;;;;;5.75;100.00;96666.41;4951794;28;20123;-70
2022/05/02 02:02:11;;;;;;;21.67;13.90;;;;;;;5.52;100.00;96660.56;4952161;28;20035;-67
2022/05/02 02:07:20;;;;;;;23.13;15.13;;;;;;;5.16;100.00;96664.72;4951278;29;20035;-68
2022/05/02 02:09:45;;;;;;;27.13;15.95;;;;;;;5.20;100.00;96664.06;4950638;29;20035;-65
2022/05/02 02:12:10;;;;;;;26.27;15.75;;;;;;;5.08;100.00;96662.88;4951927;28;20042;-67
2022/05/02 02:14:36;;;;;;;22.85;14.82;;;;;;;4.93;100.00;96658.84;4951955;29;20067;-68
2022/05/02 02:17:02;;;;;;;24.88;15.60;;;;;;;4.89;100.00;96652.47;4951631;29;20082;-67
2022/05/02 02:19:27;;;;;;;26.92;16.52;;;;;;;4.77;100.00;96655.13;4953374;28;20530;-66
2022/05/02 02:21:52;;;;;;;29.83;17.50;;;;;;;4.64;100.00;96656.97;4957801;28;20477;-67
2022/05/02 02:24:18;;;;;;;27.85;18.50;;;;;;;4.57;100.00;96652.06;4966593;28;20381;-68
2022/05/02 02:26:43;;;;;;;28.35;18.08;;;;;;;4.50;100.00;96650.97;4970522;28;20110;-66
2022/05/02 02:29:09;;;;;;;31.83;18.40;;;;;;;4.37;100.00;96650.88;4971372;28;20066;-69
2022/05/02 02:31:34;;;;;;;29.05;18.10;;;;;;;4.33;100.00;96649.16;4962878;28;20035;-66
2022/05/02 02:34:00;;;;;;;27.35;18.25;;;;;;;4.33;100.00;96644.53;4950245;29;20039;-68
2022/05/02 02:36:25;;;;;;;28.30;16.25;;;;;;;4.54;100.00;96651.94;4951010;29;20481;-67
2022/05/02 02:38:50;;;;;;;26.13;17.33;;;;;;;4.55;100.00;96648.88;4954029;29;20826;-66
2022/05/02 02:41:16;;;;;;;26.63;16.48;;;;;;;4.57;100.00;96649.38;4953062;28;20027;-65
2022/05/02 02:43:41;;;;;;;24.15;16.20;;;;;;;4.56;100.00;96649.69;4952420;28;20059;-65
2022/05/02 02:46:07;;;;;;;23.77;15.60;;;;;;;4.75;100.00;96646.50;4951950;28;20097;-67
2022/05/02 02:48:32;;;;;;;26.92;16.30;;;;;;;4.76;100.00;96640.75;4952233;28;20038;-65
2022/05/02 02:51:01;;;;;;;25.10;16.33;;;;;;;4.72;100.00;96639.84;4947280;28;20035;-66
2022/05/02 02:53:27;;;;;;;25.63;15.88;;;;;;;4.75;100.00;96632.94;4966901;28;20050;-68
2022/05/02 02:55:52;;;;;;;22.00;15.35;;;;;;;4.77;100.00;96633.41;4951049;28;20031;-65
2022/05/02 02:58:18;;;;;;;24.67;15.40;;;;;;;4.60;100.00;96629.69;4941080;28;20039;-65
2022/05/02 03:00:43;;;;;;;23.50;14.93;;;;;;;4.65;100.00;96628.72;4951094;29;20028;-64
2022/05/02 03:03:08;;;;;;;22.45;14.93;;;;;;;4.59;100.00;96630.84;4944066;28;20164;-64
2022/05/02 03:08:18;;;;;;;18.55;12.80;;;;;;;4.77;100.00;96630.69;4960381;29;20035;-64
2022/05/02 03:10:43;;;;;;;21.65;13.88;;;;;;;4.90;100.00;96629.66;4960414;28;20062;-65
2022/05/02 03:13:09;;;;;;;20.23;13.75;;;;;;;4.96;100.00;96622.88;4950263;29;20058;-64
2022/05/02 03:15:34;;;;;;;26.13;13.80;;;;;;;4.93;100.00;96626.28;4953331;29;20036;-65
2022/05/02 03:18:00;;;;;;;22.48;13.80;;;;;;;4.87;100.00;96626.81;4956398;29;20035;-65
2022/05/02 03:20:25;;;;;;;18.42;13.20;;;;;;;4.94;100.00;96624.34;4955111;28;20408;-64
2022/05/02 03:22:51;;;;;;;18.73;12.77;;;;;;;4.96;100.00;96620.19;4955961;28;20039;-64
2022/05/02 03:25:16;;;;;;;20.58;13.73;;;;;;;4.97;100.00;96619.06;4955795;29;20039;-66
2022/05/02 03:27:41;;;;;;;20.02;13.60;;;;;;;4.94;100.00;96624.34;4946782;29;20040;-65
2022/05/02 03:30:07;;;;;;;17.88;12.88;;;;;;;4.89;100.00;96621.84;4955529;28;20427;-65
2022/05/02 03:32:33;;;;;;;22.33;13.10;;;;;;;4.82;100.00;96630.50;4955115;28;20031;-67
2022/05/02 03:34:58;;;;;;;19.15;12.60;;;;;;;4.56;100.00;96619.84;4951325;28;20082;-67
2022/05/02 03:37:23;;;;;;;22.58;13.70;;;;;;;4.15;100.00;96615.94;4950309;29;20031;-64
2022/05/02 03:39:49;;;;;;;22.85;15.40;;;;;;;3.87;100.00;96621.00;4955371;28;20038;-64
2022/05/02 03:42:15;;;;;;;24.08;15.38;;;;;;;3.61;100.00;96621.88;4946921;28;20443;-68
2022/05/02 03:44:40;;;;;;;26.90;17.80;;;;;;;3.53;100.00;96612.66;4954110;29;20073;-70
2022/05/02 03:47:06;;;;;;;28.13;18.08;;;;;;;3.54;100.00;96613.44;4948191;29;20027;-66
2022/05/02 03:49:31;;;;;;;37.85;20.65;;;;;;;3.54;100.00;96614.25;4951166;29;20488;-69
2022/05/02 03:51:56;;;;;;;38.78;23.75;;;;;;;3.50;100.00;96609.81;4950092;29;20043;-67
2022/05/02 03:54:23;;;;;;;37.15;21.92;;;;;;;3.35;100.00;96611.91;4956700;28;20153;-66
2022/05/02 03:56:48;;;;;;;32.20;19.85;;;;;;;3.31;100.00;96599.31;4957942;28;20071;-67
2022/05/02 03:59:13;;;;;;;30.88;19.92;;;;;;;3.24;100.00;96608.75;4959170;28;20552;-67
2022/05/02 04:01:40;;;;;;;28.70;18.63;;;;;;;3.32;100.00;96609.84;4955106;28;20148;-66
2022/05/02 04:04:06;;;;;;;31.08;19.85;;;;;;;3.36;100.00;96616.19;4952477;28;20024;-68
2022/05/02 04:06:31;;;;;;;30.40;18.45;;;;;;;3.44;100.00;96612.69;4952396;28;20031;-68
2022/05/02 04:08:57;;;;;;;32.10;19.60;;;;;;;3.59;100.00;96610.56;4944896;29;20637;-67
2022/05/02 04:11:22;;;;;;;28.13;18.40;;;;;;;3.72;100.00;96614.97;4954985;29;20065;-67
2022/05/02 04:13:47;;;;;;;28.35;17.23;;;;;;;3.66;100.00;96612.78;4951441;28;20035;-69
2022/05/02 04:16:13;;;;;;;26.58;16.98;;;;;;;3.71;100.00;96608.00;4951577;29;20114;-67
2022/05/02 04:18:38;;;;;;;23.77;16.42;;;;;;;3.72;100.00;96611.47;4953575;29;20035;-67
2022/05/02 04:21:04;;;;;;;22.55;14.68;;;;;;;3.86;100.00;96605.88;4946935;29;20527;-68
2022/05/02 04:23:29;;;;;;;22.67;15.02;;;;;;;3.82;100.00;96608.44;4964294;29;20059;-68
2022/05/02 04:25:55;;;;;;;21.17;14.20;;;;;;;3.92;100.00;96608.06;4956678;29;20450;-64
2022/05/02 04:28:20;;;;;;;18.75;13.63;;;;;;;4.16;100.00;96614.78;4954184;28;20031;-68
2022/05/02 04:30:46;;;;;;;18.48;13.18;;;;;;;4.33;100.00;96608.50;4954959;29;20035;-66
2022/05/02 04:33:12;;;;;;;21.02;13.93;;;;;;;4.26;100.00;96608.22;4954889;28;20507;-69
2022/05/02 04:35:38;;;;;;;18.95;13.25;;;;;;;4.47;100.00;96605.56;4958619;28;20078;-66
2022/05/02 04:38:03;;;;;;;20.80;13.35;;;;;;;4.56;100.00;96604.34;4957484;29;20493;-67
2022/05/02 04:40:28;;;;;;;23.92;15.52;;;;;;;4.72;100.00;96598.34;4956607;28;20118;-68
2022/05/02 04:42:54;;;;;;;24.67;15.15;;;;;;;4.83;100.00;96601.47;4951126;28;20047;-66
2022/05/02 04:45:19;;;;;;;23.35;16.13;;;;;;;4.95;100.00;96606.94;4944660;29;20035;-71
2022/05/02 04:47:45;;;;;;;26.63;16.30;;;;;;;5.18;100.00;96604.66;4950227;28;20042;-67
2022/05/02 04:50:10;;;;;;;31.05;20.33;;;;;;;5.32;100.00;96607.88;4948059;29;20105;-65
2022/05/02 04:52:35;;;;;;;28.30;17.38;;;;;;;5.41;100.00;96604.28;4954208;28;20477;-64
2022/05/02 04:55:01;;;;;;;38.85;22.20;;;;;;;5.39;100.00;96604.63;4954062;28;20043;-67
2022/05/02 04:57:26;;;;;;;27.75;18.75;;;;;;;5.44;100.00;96603.59;4944269;29;20035;-64
2022/05/02 04:59:52;;;;;;;28.88;17.98;;;;;;;5.65;100.00;96604.34;4953181;29;20042;-69
2022/05/02 05:02:17;;;;;;;24.23;15.57;;;;;;;6.26;100.00;96605.56;4953149;29;20031;-69
2022/05/02 05:04:43;;;;;;;24.20;15.30;;;;;;;7.27;100.00;96612.84;4953555;28;20039;-68
2022/05/02 05:07:08;;;;;;;17.40;12.32;;;;;;;7.83;100.00;96603.78;4951933;28;20031;-67
2022/05/02 05:09:35;;;;;;;14.45;10.85;;;;;;;8.50;100.00;96607.72;4953496;28;20514;-64
2022/05/02 05:12:58;;;;;;;16.25;11.18;;;;;;;9.50;94.98;96606.31;4952621;29;20110;-65
2022/05/02 05:18:36;;;;;;;14.73;9.70;;;;;;;11.70;80.16;96611.09;4909390;29;20889;-65
2022/05/02 05:21:25;;;;;;;14.45;9.95;;;;;;;12.32;76.43;96607.03;4951026;28;20174;-69
2022/05/02 05:24:16;;;;;;;16.10;10.02;;;;;;;12.97;72.79;96600.78;4951922;29;20027;-66
2022/05/02 05:26:41;;;;;;;15.02;10.23;;;;;;;14.77;65.98;96606.66;4951995;29;20114;-66
2022/05/02 05:29:25;;;;;;;15.20;9.87;;;;;;;16.21;60.12;96598.56;4948060;29;20155;-66
2022/05/02 05:32:27;;;;;;;11.60;8.95;;;;;;;16.99;55.74;96598.28;4950641;29;20283;-67
2022/05/02 05:35:06;;;;;;;13.50;9.30;;;;;;;17.65;53.09;96605.41;4950921;28;20507;-68
2022/05/02 05:38:00;;;;;;;11.30;8.17;;;;;;;17.90;51.36;96609.88;4949513;28;20062;-67
2022/05/02 05:40:42;;;;;;;15.73;9.10;;;;;;;17.96;50.43;96608.19;4944923;28;20039;-66
2022/05/02 05:43:22;;;;;;;15.93;9.15;;;;;;;18.64;49.60;96614.69;4944106;29;20388;-65
2022/05/02 05:46:12;;;;;;;14.25;9.32;;;;;;;19.16;47.35;96602.25;4941105;28;20039;-65
2022/05/02 05:49:13;;;;;;;15.30;9.52;;;;;;;19.26;47.87;96613.16;4950148;28;20038;-66
2022/05/02 05:51:38;;;;;;;13.63;10.25;;;;;;;18.71;48.05;96612.56;4952979;28;20035;-69
2022/05/02 05:54:26;;;;;;;13.98;10.02;;;;;;;19.34;46.54;96604.69;4952212;29;20062;-66
2022/05/02 05:57:04;;;;;;;12.75;9.55;;;;;;;20.50;44.37;96607.34;4950805;28;20039;-65
2022/05/02 06:00:01;;;;;;;13.35;9.65;;;;;;;20.67;43.65;96608.16;4949555;28;20405;-65
2022/05/02 06:02:46;;;;;;;12.82;9.35;;;;;;;20.65;43.60;96601.44;4949337;29;20061;-68
2022/05/02 06:05:13;;;;;;;13.85;9.48;;;;;;;20.02;44.87;96600.50;4948227;28;20038;-67
2022/05/02 06:07:39;;;;;;;12.93;9.25;;;;;;;20.50;43.59;96601.75;4953058;28;20106;-66
2022/05/02 06:10:08;;;;;;;15.73;9.13;;;;;;;21.09;43.41;96602.69;4953076;28;20584;-66
2022/05/02 06:12:36;;;;;;;12.57;9.02;;;;;;;21.82;41.30;96596.66;4951525;28;20083;-67
2022/05/02 06:20:38;;;;;;;15.05;11.25;;;;;;;21.23;42.54;96598.72;4951889;29;20127;-66
2022/05/02 06:23:09;;;;;;;14.40;11.48;;;;;;;21.02;42.28;96602.09;4954130;28;20035;-68
2022/05/02 06:25:36;;;;;;;14.02;10.93;;;;;;;21.64;42.73;96596.41;4951792;29;20039;-67
2022/05/02 06:28:03;;;;;;;16.70;12.50;;;;;;;19.92;43.95;96602.31;4948804;28;20032;-66
2022/05/02 06:30:30;;;;;;;19.70;14.82;;;;;;;16.87;53.53;96607.91;4949951;29;20106;-66
2022/05/02 06:33:00;;;;;;;20.05;14.73;;;;;;;14.32;63.55;96614.53;4951193;28;20039;-66
2022/05/02 06:35:31;;;;;;;19.27;14.40;;;;;;;15.48;59.34;96607.63;4949982;28;20082;-65
2022/05/02 06:38:13;;;;;;;23.40;18.40;;;;;;;12.90;69.54;96605.44;4934221;29;20064;-65
2022/05/02 06:41:07;;;;;;;22.73;16.60;;;;;;;14.08;66.43;96608.63;4934818;29;20066;-67
2022/05/02 06:43:44;;;;;;;21.52;15.20;;;;;;;15.68;60.80;96602.41;4945170;29;20050;-67
2022/05/02 06:46:20;;;;;;;25.90;16.80;;;;;;;12.40;73.38;96609.41;4954374;28;20517;-68
2022/05/02 06:48:50;;;;;;;26.08;16.50;;;;;;;12.82;74.48;96607.38;4955435;29;20199;-66
2022/05/02 06:51:23;;;;;;;25.92;16.40;;;;;;;12.36;76.67;96605.09;4955937;29;20094;-66
2022/05/02 06:54:10;;;;;;;25.42;15.82;;;;;;;13.52;72.00;96610.88;4955931;29;20035;-67
2022/05/02 06:56:46;;;;;;;29.30;17.42;;;;;;;13.36;71.71;96607.66;4947254;29;20086;-66
2022/05/02 06:59:31;;;;;;;25.08;16.58;;;;;;;14.60;69.01;96607.47;4957190;28;20062;-66
2022/05/02 07:02:12;;;;;;;22.40;15.70;;;;;;;13.18;71.51;96596.53;4954724;28;20027;-66
2022/05/02 07:04:51;;;;;;;25.13;16.13;;;;;;;14.42;67.24;96604.69;4956503;29;20038;-67
2022/05/02 07:07:48;;;;;;;18.27;13.10;;;;;;;14.56;67.33;96601.16;4949677;28;20040;-65
2022/05/02 07:10:20;;;;;;;17.67;12.88;;;;;;;14.70;62.38;96603.91;4944098;28;20035;-66
2022/05/02 07:13:08;;;;;;;14.38;11.35;;;;;;;16.05;58.36;96595.50;4955627;28;20038;-65
2022/05/02 07:16:02;;;;;;;18.85;12.15;;;;;;;16.90;59.16;96600.75;4951639;29;20082;-65
2022/05/02 07:18:49;;;;;;;17.50;11.20;;;;;;;19.07;49.39;96598.06;4955082;28;20162;-67
2022/05/02 07:21:46;;;;;;;16.27;11.18;;;;;;;17.75;51.96;96592.63;4938037;29;20057;-67
2022/05/02 07:24:42;;;;;;;15.50;10.70;;;;;;;18.65;49.31;96602.38;4937945;29;20059;-66
2022/05/02 07:27:26;;;;;;;12.52;9.32;;;;;;;18.52;50.19;96604.94;4941993;29;20090;-67
2022/05/02 07:29:56;;;;;;;12.93;10.13;;;;;;;16.89;52.64;96596.41;4956835;29;20045;-66
2022/05/02 07:32:24;;;;;;;16.30;10.02;;;;;;;18.31;50.27;96600.53;4955301;28;20042;-67
2022/05/02 07:34:51;;;;;;;13.25;9.88;;;;;;;19.71;47.46;96595.19;4958152;28;20067;-66
2022/05/02 07:37:21;;;;;;;13.90;9.38;;;;;;;21.69;42.01;96595.88;4960665;28;20090;-67
2022/05/02 07:39:49;;;;;;;14.00;10.15;;;;;;;20.56;44.83;96586.13;4965105;28;20035;-67
2022/05/02 07:42:16;;;;;;;14.95;10.00;;;;;;;20.51;44.48;96588.63;4961902;28;20495;-67
2022/05/02 07:44:43;;;;;;;11.50;9.48;;;;;;;20.45;43.72;96582.81;4956265;29;20035;-67
2022/05/02 07:47:11;;;;;;;13.68;10.27;;;;;;;19.24;47.29;96587.03;4955438;28;20035;-67
2022/05/02 07:49:39;;;;;;;11.90;8.65;;;;;;;21.46;42.55;96580.22;4947297;29;20043;-67
2022/05/02 07:52:05;;;;;;;10.90;7.40;;;;;;;22.91;39.15;96583.66;4944165;28;20043;-68
2022/05/02 07:54:37;;;;;;;9.60;7.53;;;;;;;23.19;39.08;96586.69;4946315;28;20065;-67
2022/05/02 07:57:04;;;;;;;11.70;8.13;;;;;;;21.81;40.33;96575.59;4941766;28;20071;-68
2022/05/02 07:59:35;;;;;;;9.43;7.28;;;;;;;21.99;39.18;96583.41;4943780;29;20035;-67
2022/05/02 08:02:00;;;;;;;8.60;6.95;;;;;;;22.79;39.03;96579.66;4943776;28;20661;-66
2022/05/02 08:04:26;;;;;;;12.90;8.45;;;;;;;23.58;37.48;96570.53;4945116;28;20055;-68
2022/05/02 08:06:58;;;;;;;12.82;9.30;;;;;;;22.82;39.67;96575.19;4959579;28;20054;-66
2022/05/02 08:10:01;;;;;;;13.57;8.68;;;;;;;21.47;42.55;96574.19;4948796;28;21005;-68
2022/05/02 08:12:37;;;;;;;16.45;9.57;;;;;;;22.02;40.67;96576.97;4931835;28;20043;-68
2022/05/02 08:15:08;;;;;;;14.93;9.35;;;;;;;21.49;42.46;96570.97;4943729;28;20122;-69
2022/05/02 08:17:47;;;;;;;13.48;9.55;;;;;;;21.99;42.28;96569.47;4938127;28;20070;-67
2022/05/02 08:20:15;;;;;;;13.77;9.57;;;;;;;22.12;41.76;96575.06;4939308;28;20043;-68
2022/05/02 08:28:41;;;;;;;15.70;10.23;;;;;;;21.55;43.10;96578.34;4940142;28;20556;-68
2022/05/02 08:31:24;;;;;;;15.50;10.30;;;;;;;21.36;44.74;96577.25;4932671;28;20054;-67
2022/05/02 08:34:18;;;;;;;12.93;9.95;;;;;;;21.59;43.35;96572.69;4936019;28;20162;-67
2022/05/02 08:36:44;;;;;;;12.95;10.02;;;;;;;21.40;43.03;96574.38;4941441;28;20923;-66
2022/05/02 08:39:13;;;;;;;12.20;9.23;;;;;;;21.62;42.74;96568.97;4931962;28;20055;-68
2022/05/02 08:42:11;;;;;;;14.00;9.27;;;;;;;21.83;43.31;96569.59;4945199;28;20043;-67
2022/05/02 08:44:46;;;;;;;14.07;10.88;;;;;;;20.43;45.65;96566.56;4904944;28;20039;-67
2022/05/02 08:47:36;;;;;;;16.80;12.07;;;;;;;20.63;46.69;96562.91;4930250;28;20122;-66
2022/05/02 08:50:43;;;;;;;18.50;10.20;;;;;;;20.38;45.87;96567.09;4924473;29;20382;-66
2022/05/02 08:53:26;;;;;;;13.70;10.70;;;;;;;19.84;48.14;96568.34;4890625;29;20083;-67
2022/05/02 08:56:13;;;;;;;14.88;10.40;;;;;;;20.27;47.69;96557.44;4945755;28;20047;-66
2022/05/02 08:58:50;;;;;;;15.10;9.90;;;;;;;20.97;45.89;96561.66;4946011;28;20047;-67
2022/05/02 09:01:35;;;;;;;17.08;10.77;;;;;;;21.14;45.78;96559.56;4946508;28;20105;-67
2022/05/02 09:04:09;;;;;;;15.48;10.27;;;;;;;19.17;49.36;96551.88;4929731;29;20039;-67
2022/05/02 09:07:05;;;;;;;14.20;10.20;;;;;;;20.57;46.59;96553.53;4947089;28;20523;-68
2022/05/02 09:09:52;;;;;;;12.57;9.55;;;;;;;21.20;45.63;96553.03;4940406;28;20054;-68
2022/05/02 09:12:48;;;;;;;14.10;9.68;;;;;;;21.70;44.23;96548.06;4929302;28;20039;-68
2022/05/02 09:15:47;;;;;;;12.98;9.13;;;;;;;21.31;44.86;96546.38;4937264;28;20066;-67
2022/05/02 09:18:50;;;;;;;13.75;9.82;;;;;;;20.18;47.69;96546.91;4934059;28;20053;-67
2022/05/02 09:21:28;;;;;;;14.63;9.90;;;;;;;20.73;48.38;96547.19;4937524;28;20039;-67
2022/05/02 09:24:37;;;;;;;12.55;9.65;;;;;;;20.83;45.97;96548.88;4936058;28;20053;-66
2022/05/02 09:27:14;;;;;;;16.15;9.80;;;;;;;21.06;45.66;96552.66;4940654;28;20110;-68
2022/05/02 09:30:27;;;;;;;13.38;9.68;;;;;;;19.98;47.97;96553.34;4943530;28;20142;-67
2022/05/02 09:33:01;;;;;;;14.27;9.57;;;;;;;20.24;47.51;96539.63;4928903;28;20066;-68
2022/05/02 09:35:34;;;;;;;13.65;9.10;;;;;;;20.43;48.05;96540.75;4936420;28;20051;-67
2022/05/02 09:38:18;;;;;;;12.25;9.07;;;;;;;20.72;47.16;96538.03;4944363;28;20055;-68
2022/05/02 09:40:44;;;;;;;12.20;8.40;;;;;;;21.19;46.34;96539.53;4943495;28;20035;-66
2022/05/02 09:49:33;;;;;;;11.65;8.65;;;;;;;20.94;46.44;96532.69;4938071;28;20046;-68
2022/05/02 09:50:01;;;;;;;11.60;9.18;;;;;;;20.78;45.34;96530.72;4933427;28;20051;-66
2022/05/02 09:52:40;;;;;;;12.82;9.77;;;;;;;18.74;51.20;96533.25;4937794;28;20473;-67
2022/05/02 09:58:30;;;;;;;12.55;8.57;;;;;;;22.23;42.76;96522.50;4945704;28;20123;-69
2022/05/02 10:01:11;;;;;;;12.73;7.10;;;;;;;22.78;40.66;96522.28;4941470;28;20433;-67
2022/05/02 10:03:37;;;;;;;8.73;6.85;;;;;;;23.57;39.51;96516.66;4941918;28;20043;-67
2022/05/02 10:06:07;;;;;;;10.35;7.50;;;;;;;23.44;38.86;96513.13;4941271;28;20039;-65
2022/05/02 10:08:38;;;;;;;10.02;8.25;;;;;;;22.88;41.97;96509.16;4943603;28;20047;-68
2022/05/02 10:11:15;;;;;;;10.85;8.10;;;;;;;22.41;41.92;96515.56;4940205;28;20441;-65
2022/05/02 10:13:59;;;;;;;11.75;8.85;;;;;;;21.87;40.76;96509.69;4942814;28;20046;-68
2022/05/02 10:16:40;;;;;;;9.50;7.05;;;;;;;21.99;42.28;96504.56;4944839;28;20069;-66
2022/05/02 10:19:23;;;;;;;10.88;7.57;;;;;;;21.38;41.92;96499.59;4962019;28;20049;-66
2022/05/02 10:22:08;;;;;;;10.05;7.65;;;;;;;21.02;43.49;96499.09;4952622;28;20579;-67
2022/05/02 10:25:05;;;;;;;10.77;7.80;;;;;;;20.80;44.15;96489.31;4955209;28;20047;-68
2022/05/02 10:27:54;;;;;;;17.02;10.38;;;;;;;21.18;47.11;96497.00;4968821;28;20554;-67
2022/05/02 10:30:20;;;;;;;9.30;6.75;;;;;;;21.31;42.27;96505.38;4954236;28;20130;-69
2022/05/02 10:32:56;;;;;;;12.30;9.25;;;;;;;20.97;47.36;96495.59;4970315;28;20157;-67
2022/05/02 10:35:27;;;;;;;10.25;8.18;;;;;;;20.57;46.19;96493.09;4947082;28;20062;-66
2022/05/02 10:38:01;;;;;;;9.68;7.03;;;;;;;20.17;44.21;96495.31;4971593;28;20043;-68
2022/05/02 10:40:29;;;;;;;8.32;6.22;;;;;;;20.55;41.22;96489.97;4947014;28;20129;-66
2022/05/02 10:42:57;;;;;;;9.00;6.43;;;;;;;20.78;43.43;96488.22;4969932;28;20368;-68
2022/05/02 10:45:27;;;;;;;9.20;7.20;;;;;;;21.49;42.01;96479.81;4939451;28;20074;-68
2022/05/02 10:48:06;;;;;;;11.88;9.23;;;;;;;21.07;44.94;96479.81;4969297;28;20039;-68
2022/05/02 10:50:34;;;;;;;10.80;8.25;;;;;;;19.96;47.38;96491.06;4968399;28;20050;-65
2022/05/02 10:53:00;;;;;;;9.63;7.00;;;;;;;19.78;46.08;96483.16;4960846;28;20066;-66
2022/05/02 10:55:36;;;;;;;13.38;8.52;;;;;;;20.03;48.93;96488.88;4936255;28;20083;-66
2022/05/02 10:58:04;;;;;;;13.85;9.02;;;;;;;20.44;48.15;96475.56;4968537;28;20042;-66
2022/05/02 11:00:31;;;;;;;12.18;8.48;;;;;;;19.72;49.51;96471.75;4968693;28;20067;-66
2022/05/02 11:03:02;;;;;;;11.75;9.07;;;;;;;19.09;51.75;96467.19;4968698;28;20039;-66
2022/05/02 11:05:44;;;;;;;11.27;9.00;;;;;;;19.03;50.73;96472.47;4947908;28;20459;-66
2022/05/02 11:08:37;;;;;;;12.90;8.15;;;;;;;18.82;51.28;96468.13;4965573;28;20051;-66
2022/05/02 11:11:07;;;;;;;12.40;9.30;;;;;;;19.13;50.15;96476.22;4945787;28;20423;-64
2022/05/02 11:13:59;;;;;;;13.60;8.73;;;;;;;19.02;51.17;96468.13;4967795;28;20086;-67
2022/05/02 11:16:49;;;;;;;10.13;7.00;;;;;;;18.27;49.24;96463.97;4961346;28;20425;-66
2022/05/02 11:22:30;;;;;;;12.02;7.20;;;;;;;18.70;48.77;96468.72;4959224;28;20046;-68
2022/05/02 11:25:10;;;;;;;9.35;7.15;;;;;;;18.99;49.14;96468.19;4963319;28;20039;-68
2022/05/02 11:28:04;;;;;;;11.27;6.30;;;;;;;18.89;45.96;96461.66;4975657;28;20066;-69
2022/05/02 11:30:42;;;;;;;9.77;6.55;;;;;;;18.97;44.29;96459.50;4972223;28;20563;-68
2022/05/02 11:33:22;;;;;;;7.90;5.50;;;;;;;19.18;45.07;96447.97;4945591;28;20049;-68
2022/05/02 11:35:49;;;;;;;8.98;5.72;;;;;;;19.86;43.79;96451.19;4967908;28;20090;-70
2022/05/02 11:38:35;;;;;;;11.98;5.90;;;;;;;19.89;43.58;96460.66;4962056;28;20129;-67
2022/05/02 11:41:11;;;;;;;7.30;4.80;;;;;;;19.37;39.82;96448.34;4969968;28;20043;-68
2022/05/02 11:43:37;;;;;;;8.32;4.40;;;;;;;19.18;40.39;96447.19;4975287;28;20034;-66
2022/05/02 11:46:24;;;;;;;7.22;4.30;;;;;;;19.82;37.39;96454.03;4971856;28;20039;-65
2022/05/02 11:49:14;;;;;;;6.38;3.85;;;;;;;18.94;41.21;96440.94;4968595;28;20042;-66
2022/05/02 11:51:47;;;;;;;5.30;3.63;;;;;;;17.96;42.62;96458.56;4965599;28;20043;-68
2022/05/02 11:54:25;;;;;;;6.97;3.92;;;;;;;18.18;43.17;96450.66;4960384;28;20050;-68
2022/05/02 11:56:59;;;;;;;6.63;3.47;;;;;;;18.51;41.67;96443.34;4968233;28;20097;-68
2022/05/02 11:59:32;;;;;;;5.47;3.70;;;;;;;19.35;40.57;96431.34;4963948;28;20596;-68
2022/05/02 12:02:12;;;;;;;5.03;3.22;;;;;;;19.65;37.60;96435.78;4960749;28;20473;-67
2022/05/02 12:04:40;;;;;;;;;;;;;;;18.90;38.26;96435.47;4953420;28;20043;-68
2022/05/02 12:07:13;;;;;;;5.35;3.78;;;;;;;19.38;37.54;96431.25;4957796;28;19921;-67
2022/05/02 12:09:40;;;;;;;4.85;3.38;;;;;;;19.33;39.22;96434.53;4948252;28;20047;-69
2022/05/02 12:12:07;;;;;;;13.57;3.70;;;;;;;20.17;38.46;96429.38;4942519;28;20046;-68
2022/05/02 12:14:33;;;;;;;4.80;3.80;;;;;;;19.48;39.71;96433.00;4957024;28;20126;-66
2022/05/02 12:17:11;;;;;;;5.75;3.60;;;;;;;17.84;44.18;96432.19;4942925;28;20504;-67
2022/05/02 12:19:39;;;;;;;5.05;3.60;;;;;;;17.11;44.49;96440.03;4944560;28;20062;-68